createdAt,value
2022-08-07T00:00:30.624Z,12.64
2022-08-07T00:02:57.406Z,12.49
2022-08-07T00:05:26.299Z,12.42
2022-08-07T00:07:59.639Z,12.29
2022-08-07T00:10:30.747Z,12.26
2022-08-07T00:13:17.421Z,12.34
2022-08-07T00:15:52.651Z,12.43
2022-08-07T00:18:25.141Z,12.38
2022-08-07T00:21:03.500Z,12.40
2022-08-07T00:23:39.628Z,12.37
2022-08-07T00:26:18.484Z,12.40
2022-08-07T00:28:58.159Z,12.46
2022-08-07T00:31:37.679Z,12.38
2022-08-07T00:34:09.001Z,12.24
2022-08-07T00:36:43.053Z,12.14
2022-08-07T00:39:16.700Z,12.10
2022-08-07T00:42:01.702Z,12.21
2022-08-07T00:44:33.254Z,12.22
2022-08-07T00:47:02.755Z,12.17
2022-08-07T00:50:21.131Z,12.15
2022-08-07T00:52:19.870Z,12.27
2022-08-07T00:54:53.932Z,12.34
2022-08-07T00:57:26.253Z,12.16
2022-08-07T00:59:54.435Z,12.17
2022-08-07T01:02:28.550Z,12.19
2022-08-07T01:04:58.649Z,12.06
2022-08-07T01:07:29.253Z,12.08
2022-08-07T01:10:06.967Z,12.18
2022-08-07T01:12:53.082Z,12.22
2022-08-07T01:15:21.761Z,12.13
2022-08-07T01:17:48.969Z,11.99
2022-08-07T01:20:20.443Z,11.94
2022-08-07T01:23:09.099Z,11.95
2022-08-07T01:25:55.311Z,12.08
2022-08-07T01:28:24.270Z,12.07
2022-08-07T01:30:54.238Z,12.10
2022-08-07T01:33:24.818Z,12.02
2022-08-07T01:36:06.187Z,11.95
2022-08-07T01:38:33.753Z,11.89
2022-08-07T01:41:04.260Z,11.91
2022-08-07T01:43:38.344Z,11.90
2022-08-07T01:46:08.389Z,11.83
2022-08-07T01:48:46.666Z,11.69
2022-08-07T01:52:03.195Z,11.62
2022-08-07T01:54:32.549Z,11.55
2022-08-07T01:57:24.632Z,11.33
2022-08-07T02:00:03.183Z,11.41
2022-08-07T02:03:19.359Z,11.45
2022-08-07T02:05:48.613Z,11.43
2022-08-07T02:08:30.706Z,11.29
2022-08-07T02:11:01.017Z,11.31
2022-08-07T02:13:56.796Z,11.36
2022-08-07T02:16:28.753Z,11.18
2022-08-07T02:19:05.540Z,11.32
2022-08-07T02:21:56.209Z,11.29
2022-08-07T02:24:26.052Z,11.16
2022-08-07T02:27:02.555Z,11.24
2022-08-07T02:29:31.880Z,11.15
2022-08-07T02:32:03.535Z,11.05
2022-08-07T02:34:32.938Z,11.05
2022-08-07T02:37:08.200Z,10.95
2022-08-07T02:40:02.398Z,10.93
2022-08-07T02:42:32.716Z,10.93
2022-08-07T02:45:18.432Z,10.94
2022-08-07T02:47:49.908Z,10.95
2022-08-07T02:50:18.440Z,10.94
2022-08-07T02:53:00.816Z,10.89
2022-08-07T02:56:03.353Z,10.89
2022-08-07T02:58:27.192Z,11.01
2022-08-07T03:00:58.370Z,11.10
2022-08-07T03:03:49.342Z,11.09
2022-08-07T03:06:26.158Z,11.11
2022-08-07T03:09:03.822Z,11.11
2022-08-07T03:11:38.418Z,11.08
2022-08-07T03:14:07.045Z,11.04
2022-08-07T03:16:38.444Z,10.96
2022-08-07T03:19:06.132Z,10.97
2022-08-07T03:21:33.455Z,11.01
2022-08-07T03:24:19.601Z,10.98
2022-08-07T03:26:58.574Z,10.86
2022-08-07T03:29:49.653Z,10.84
2022-08-07T03:32:34.520Z,10.87
2022-08-07T03:35:17.748Z,10.76
2022-08-07T03:37:55.198Z,10.71
2022-08-07T03:40:30.675Z,10.59
2022-08-07T03:43:04.543Z,10.52
2022-08-07T03:45:43.606Z,10.57
2022-08-07T03:48:15.855Z,10.64
2022-08-07T03:50:55.662Z,10.64
2022-08-07T03:53:50.040Z,10.60
2022-08-07T03:56:33.315Z,10.58
2022-08-07T03:59:08.993Z,10.52
2022-08-07T04:01:45.756Z,10.48
2022-08-07T04:04:17.735Z,10.49
2022-08-07T04:06:46.253Z,10.63
2022-08-07T04:09:19.753Z,10.72
2022-08-07T04:12:23.896Z,10.66
2022-08-07T04:14:43.578Z,10.68
2022-08-07T04:17:20.149Z,10.78
2022-08-07T04:20:00.020Z,10.86
2022-08-07T04:22:30.167Z,10.84
2022-08-07T04:25:01.406Z,10.82
2022-08-07T04:27:36.320Z,10.87
2022-08-07T04:30:21.014Z,10.87
2022-08-07T04:32:58.126Z,10.92
2022-08-07T04:35:25.856Z,10.90
2022-08-07T04:38:02.952Z,10.94
2022-08-07T04:40:32.480Z,10.95
2022-08-07T04:43:02.180Z,10.92
2022-08-07T04:46:01.875Z,10.97
2022-08-07T04:48:38.165Z,11.06
2022-08-07T04:51:15.038Z,11.14
2022-08-07T04:54:19.518Z,11.23
2022-08-07T04:58:23.766Z,11.26
2022-08-07T05:00:30.113Z,11.36
2022-08-07T05:03:49.951Z,11.43
2022-08-07T05:07:20.692Z,11.53
2022-08-07T05:10:00.722Z,11.55
2022-08-07T05:12:38.231Z,11.61
2022-08-07T05:15:31.111Z,11.67
2022-08-07T05:18:08.765Z,11.74
2022-08-07T05:20:45.152Z,11.81
2022-08-07T05:23:19.329Z,12.07
2022-08-07T05:26:13.702Z,12.14
2022-08-07T05:28:48.498Z,12.30
2022-08-07T05:31:19.812Z,12.63
2022-08-07T05:34:04.957Z,13.07
2022-08-07T05:36:35.471Z,13.53
2022-08-07T05:40:06.571Z,13.82
2022-08-07T05:42:02.612Z,14.09
2022-08-07T05:44:37.753Z,14.25
2022-08-07T05:47:19.915Z,14.35
2022-08-07T05:49:52.740Z,14.59
2022-08-07T05:52:32.613Z,14.83
2022-08-07T05:55:10.297Z,15.00
2022-08-07T05:57:42.197Z,15.07
2022-08-07T06:00:16.480Z,15.32
2022-08-07T06:02:49.317Z,15.53
2022-08-07T06:05:19.661Z,15.72
2022-08-07T06:08:14.073Z,16.01
2022-08-07T06:10:42.579Z,16.19
2022-08-07T06:13:13.627Z,16.44
2022-08-07T06:15:43.842Z,16.42
2022-08-07T06:18:14.024Z,16.42
2022-08-07T06:20:50.980Z,16.51
2022-08-07T06:24:37.908Z,16.85
2022-08-07T06:26:20.684Z,17.02
2022-08-07T06:28:54.562Z,17.33
2022-08-07T06:31:24.266Z,17.65
2022-08-07T06:34:08.644Z,17.76
2022-08-07T06:36:36.572Z,17.59
2022-08-07T06:40:17.601Z,17.69
2022-08-07T06:42:03.574Z,18.14
2022-08-07T06:44:36.653Z,18.33
2022-08-07T06:47:12.028Z,18.42
2022-08-07T06:49:51.200Z,18.53
2022-08-07T06:52:31.705Z,18.75
2022-08-07T06:55:32.302Z,18.87
2022-08-07T06:57:59.424Z,19.20
2022-08-07T07:00:33.624Z,19.42
2022-08-07T07:03:08.928Z,18.96
2022-08-07T07:06:05.587Z,19.27
2022-08-07T07:08:29.991Z,19.42
2022-08-07T07:11:01.622Z,19.59
2022-08-07T07:13:58.075Z,19.87
2022-08-07T07:16:45.435Z,19.82
2022-08-07T07:19:55.020Z,19.76
2022-08-07T07:22:36.805Z,19.59
2022-08-07T07:26:31.084Z,19.70
2022-08-07T07:28:42.646Z,19.80
2022-08-07T07:31:10.924Z,20.34
2022-08-07T07:33:41.031Z,20.99
2022-08-07T07:36:13.333Z,20.59
2022-08-07T07:38:46.122Z,20.76
2022-08-07T07:41:21.013Z,20.23
2022-08-07T07:44:14.541Z,20.60
2022-08-07T07:46:55.213Z,20.29
2022-08-07T07:50:34.215Z,20.10
2022-08-07T07:52:18.679Z,20.02
2022-08-07T07:54:50.805Z,20.62
2022-08-07T07:57:44.372Z,21.10
2022-08-07T08:00:21.046Z,21.22
2022-08-07T08:03:06.812Z,21.66
2022-08-07T08:05:50.504Z,20.72
2022-08-07T08:08:34.509Z,21.39
2022-08-07T08:11:08.180Z,21.87
2022-08-07T08:13:53.351Z,22.32
2022-08-07T08:16:35.427Z,21.23
2022-08-07T08:19:18.199Z,21.69
2022-08-07T08:22:14.147Z,22.03
2022-08-07T08:25:24.612Z,21.33
2022-08-07T08:28:01.596Z,21.39
2022-08-07T08:30:35.100Z,21.37
2022-08-07T08:33:16.996Z,21.91
2022-08-07T08:35:49.857Z,22.60
2022-08-07T08:38:29.228Z,22.59
2022-08-07T08:41:21.592Z,22.16
2022-08-07T08:44:08.325Z,21.99
2022-08-07T08:46:53.227Z,22.58
2022-08-07T08:49:46.763Z,22.67
2022-08-07T08:52:40.852Z,22.91
2022-08-07T08:55:53.237Z,22.09
2022-08-07T08:58:47.244Z,22.87
2022-08-07T09:01:49.043Z,22.74
2022-08-07T09:04:34.836Z,22.23
2022-08-07T09:07:46.316Z,22.46
2022-08-07T09:10:57.174Z,23.52
2022-08-07T09:13:52.084Z,23.23
2022-08-07T09:17:12.398Z,22.81
2022-08-07T09:19:57.415Z,22.91
2022-08-07T09:24:32.367Z,22.82
2022-08-07T09:25:54.664Z,23.12
2022-08-07T09:30:00.712Z,23.50
2022-08-07T09:32:05.845Z,23.58
2022-08-07T09:36:04.971Z,23.49
2022-08-07T09:38:43.718Z,23.57
2022-08-07T09:41:58.432Z,23.83
2022-08-07T09:47:25.421Z,24.38
2022-08-07T09:48:15.305Z,24.60
2022-08-07T09:52:10.190Z,24.36
2022-08-07T09:54:33.781Z,23.51
2022-08-07T09:57:47.440Z,23.10
2022-08-07T10:00:20.800Z,23.23
2022-08-07T10:04:06.799Z,23.63
2022-08-07T10:07:25.785Z,24.05
2022-08-07T10:10:21.990Z,23.43
2022-08-07T10:13:55.339Z,22.97
2022-08-07T10:17:03.730Z,23.46
2022-08-07T10:20:21.946Z,23.34
2022-08-07T10:24:05.582Z,22.84
2022-08-07T10:26:53.018Z,23.01
2022-08-07T10:29:51.669Z,23.08
2022-08-07T10:33:05.804Z,23.42
2022-08-07T10:36:11.295Z,23.78
2022-08-07T10:39:12.665Z,24.22
2022-08-07T10:42:00.400Z,23.79
2022-08-07T10:45:19.393Z,24.34
2022-08-07T10:48:34.945Z,24.80
2022-08-07T10:51:39.095Z,25.38
2022-08-07T10:54:21.684Z,25.09
2022-08-07T10:57:13.865Z,25.03
2022-08-07T11:00:09.940Z,24.25
2022-08-07T11:03:14.685Z,22.51
2022-08-07T11:05:57.105Z,22.83
2022-08-07T11:08:42.546Z,23.12
2022-08-07T11:11:20.188Z,22.95
2022-08-07T11:14:44.700Z,22.01
2022-08-07T11:17:23.575Z,21.48
2022-08-07T11:20:16.160Z,22.27
2022-08-07T11:23:30.834Z,22.89
2022-08-07T11:26:31.643Z,22.31
2022-08-07T11:29:42.229Z,22.85
2022-08-07T11:32:29.331Z,23.40
2022-08-07T11:35:09.352Z,22.32
2022-08-07T11:38:10.346Z,22.94
2022-08-07T11:40:49.662Z,22.79
2022-08-07T11:43:29.484Z,22.82
2022-08-07T11:46:11.839Z,22.73
2022-08-07T11:49:50.529Z,23.13
2022-08-07T11:52:39.854Z,23.00
2022-08-07T11:56:25.546Z,23.48
2022-08-07T11:58:44.147Z,23.20
2022-08-07T12:01:59.135Z,23.63
2022-08-07T12:04:56.780Z,23.56
2022-08-07T12:07:39.108Z,23.27
2022-08-07T12:10:27.766Z,23.63
2022-08-07T12:12:59.525Z,24.10
2022-08-07T12:16:06.194Z,23.92
2022-08-07T12:18:45.699Z,23.89
2022-08-07T12:22:35.986Z,23.97
2022-08-07T12:25:08.049Z,24.22
2022-08-07T12:28:08.703Z,24.19
2022-08-07T12:30:41.290Z,23.89
2022-08-07T12:33:23.504Z,23.65
2022-08-07T12:36:02.123Z,23.61
2022-08-07T12:38:42.605Z,23.80
2022-08-07T12:41:13.170Z,23.48
2022-08-07T12:44:02.923Z,23.36
2022-08-07T12:46:57.742Z,23.31
2022-08-07T12:50:33.760Z,23.10
2022-08-07T12:53:22.223Z,23.09
2022-08-07T12:56:10.130Z,23.10
2022-08-07T12:58:42.934Z,23.00
2022-08-07T13:01:27.957Z,23.27
2022-08-07T13:04:31.711Z,23.70
2022-08-07T13:08:12.051Z,23.86
2022-08-07T13:11:06.687Z,23.63
2022-08-07T13:14:08.434Z,23.78
2022-08-07T13:17:04.630Z,23.62
2022-08-07T13:20:09.803Z,24.06
2022-08-07T13:22:52.531Z,23.95
2022-08-07T13:25:38.816Z,23.88
2022-08-07T13:28:28.800Z,24.20
2022-08-07T13:31:13.427Z,23.94
2022-08-07T13:34:31.647Z,23.92
2022-08-07T13:36:57.731Z,24.12
2022-08-07T13:40:36.577Z,24.35
2022-08-07T13:42:51.307Z,24.79
2022-08-07T13:46:11.070Z,24.52
2022-08-07T13:48:27.368Z,24.36
2022-08-07T13:51:01.931Z,24.45
2022-08-07T13:54:00.477Z,24.27
2022-08-07T13:56:36.342Z,24.37
2022-08-07T13:59:21.489Z,24.09
2022-08-07T14:02:04.861Z,24.04
2022-08-07T14:04:49.009Z,23.43
2022-08-07T14:07:22.957Z,23.30
2022-08-07T14:10:17.474Z,22.95
2022-08-07T14:12:57.830Z,23.17
2022-08-07T14:15:40.488Z,23.12
2022-08-07T14:18:28.835Z,23.20
2022-08-07T14:21:20.686Z,23.54
2022-08-07T14:24:08.698Z,23.33
2022-08-07T14:27:00.878Z,23.52
2022-08-07T14:30:06.394Z,24.05
2022-08-07T14:32:45.733Z,23.90
2022-08-07T14:35:45.514Z,23.53
2022-08-07T14:38:26.451Z,23.78
2022-08-07T14:41:15.031Z,23.99
2022-08-07T14:43:56.984Z,24.00
2022-08-07T14:46:32.405Z,23.76
2022-08-07T14:49:56.818Z,23.87
2022-08-07T14:52:12.171Z,24.09
2022-08-07T14:54:46.014Z,24.30
2022-08-07T14:57:25.209Z,24.12
2022-08-07T15:00:20.784Z,24.88
2022-08-07T15:03:18.805Z,25.65
2022-08-07T15:08:54.523Z,24.83
2022-08-07T15:11:54.258Z,24.81
2022-08-07T15:14:25.457Z,24.76
2022-08-07T15:17:02.707Z,25.81
2022-08-07T15:20:30.905Z,25.97
2022-08-07T15:22:33.459Z,24.95
2022-08-07T15:25:17.305Z,25.66
2022-08-07T15:28:32.503Z,25.71
2022-08-07T15:31:04.518Z,24.86
2022-08-07T15:33:33.404Z,25.06
2022-08-07T15:38:59.682Z,25.11
2022-08-07T15:42:43.838Z,25.05
2022-08-07T15:44:23.765Z,25.01
2022-08-07T15:47:08.907Z,25.16
2022-08-07T15:50:05.634Z,25.14
2022-08-07T15:52:39.862Z,24.61
2022-08-07T15:55:13.083Z,25.34
2022-08-07T15:57:48.711Z,25.43
2022-08-07T16:00:31.195Z,25.13
2022-08-07T16:03:21.902Z,25.77
2022-08-07T16:06:02.277Z,25.75
2022-08-07T16:08:38.740Z,25.48
2022-08-07T16:11:26.965Z,25.37
2022-08-07T16:14:11.908Z,24.92
2022-08-07T16:17:16.146Z,24.64
2022-08-07T16:20:33.030Z,24.82
2022-08-07T16:23:54.150Z,24.45
2022-08-07T16:26:16.730Z,24.55
2022-08-07T16:30:09.137Z,24.08
2022-08-07T16:32:32.911Z,24.10
2022-08-07T16:35:58.509Z,24.05
2022-08-07T16:39:00.510Z,23.71
2022-08-07T16:41:54.639Z,23.58
2022-08-07T16:45:15.410Z,23.44
2022-08-07T16:48:16.652Z,23.41
2022-08-07T16:51:51.788Z,23.23
2022-08-07T16:54:21.374Z,23.26
2022-08-07T16:58:01.752Z,23.10
2022-08-07T17:00:57.323Z,23.12
2022-08-07T17:03:59.842Z,23.03
2022-08-07T17:07:03.425Z,23.20
2022-08-07T17:10:06.939Z,23.27
2022-08-07T17:13:01.457Z,23.26
2022-08-07T17:15:50.640Z,23.23
2022-08-07T17:18:32.894Z,23.32
2022-08-07T17:21:03.808Z,23.22
2022-08-07T17:24:14.391Z,23.13
2022-08-07T17:27:03.161Z,23.05
2022-08-07T17:30:14.459Z,23.18
2022-08-07T17:34:10.162Z,23.14
2022-08-07T17:36:27.143Z,23.19
2022-08-07T17:39:57.769Z,23.40
2022-08-07T17:42:58.567Z,23.38
2022-08-07T17:45:42.239Z,23.00
2022-08-07T17:48:24.659Z,22.88
2022-08-07T17:52:00.368Z,22.96
2022-08-07T17:54:54.617Z,22.77
2022-08-07T17:57:32.104Z,22.73
2022-08-07T18:00:33.312Z,22.56
2022-08-07T18:03:25.567Z,22.48
2022-08-07T18:06:09.371Z,22.49
2022-08-07T18:09:01.885Z,22.49
2022-08-07T18:12:16.380Z,22.38
2022-08-07T18:15:22.667Z,22.39
2022-08-07T18:18:36.668Z,22.35
2022-08-07T18:21:37.132Z,22.36
2022-08-07T18:24:33.284Z,22.22
2022-08-07T18:27:39.332Z,22.14
2022-08-07T18:30:33.112Z,22.08
2022-08-07T18:33:25.723Z,21.99
2022-08-07T18:36:17.613Z,21.73
2022-08-07T18:40:07.290Z,21.54
2022-08-07T18:42:56.800Z,21.55
2022-08-07T18:46:24.553Z,21.34
2022-08-07T18:50:19.375Z,20.82
2022-08-07T18:52:52.923Z,20.33
2022-08-07T18:56:01.860Z,20.48
2022-08-07T18:58:43.076Z,20.47
2022-08-07T19:02:32.871Z,20.47
2022-08-07T19:04:57.669Z,20.41
2022-08-07T19:08:07.821Z,20.32
2022-08-07T19:10:59.476Z,20.38
2022-08-07T19:13:46.128Z,20.38
2022-08-07T19:17:07.766Z,20.28
2022-08-07T19:20:25.019Z,20.17
2022-08-07T19:23:18.718Z,20.05
2022-08-07T19:26:24.870Z,19.93
2022-08-07T19:30:56.893Z,19.81
2022-08-07T19:32:10.232Z,19.72
2022-08-07T19:34:43.908Z,19.69
2022-08-07T19:37:22.278Z,19.53
2022-08-07T19:40:02.669Z,19.39
2022-08-07T19:42:33.624Z,19.23
2022-08-07T19:46:01.161Z,19.22
2022-08-07T19:48:19.065Z,19.23
2022-08-07T19:50:54.577Z,19.23
2022-08-07T19:54:34.051Z,19.17
2022-08-07T19:58:02.228Z,19.14
2022-08-07T19:59:16.535Z,19.13
2022-08-07T20:01:57.883Z,19.10
2022-08-07T20:04:31.132Z,19.05
2022-08-07T20:07:01.115Z,19.01
2022-08-07T20:10:36.677Z,19.00
2022-08-07T20:12:34.557Z,18.89
2022-08-07T20:15:11.741Z,18.78
2022-08-07T20:18:01.282Z,18.57
2022-08-07T20:20:32.745Z,18.55
2022-08-07T20:23:22.842Z,18.55
2022-08-07T20:25:55.843Z,18.48
2022-08-07T20:28:30.717Z,18.39
2022-08-07T20:30:59.386Z,18.39
2022-08-07T20:33:36.564Z,18.39
2022-08-07T20:36:08.805Z,18.31
2022-08-07T20:38:59.601Z,18.12
2022-08-07T20:41:33.976Z,18.10
2022-08-07T20:44:02.876Z,18.10
2022-08-07T20:46:43.212Z,18.01
2022-08-07T20:49:58.311Z,17.93
2022-08-07T20:52:16.682Z,17.89
2022-08-07T20:54:53.204Z,17.88
2022-08-07T20:57:28.158Z,17.83
2022-08-07T21:00:09.198Z,17.77
2022-08-07T21:03:00.712Z,17.70
2022-08-07T21:05:51.380Z,17.67
2022-08-07T21:08:52.639Z,17.63
2022-08-07T21:11:40.024Z,17.50
2022-08-07T21:14:31.952Z,17.43
2022-08-07T21:18:02.149Z,17.43
2022-08-07T21:20:04.884Z,17.41
2022-08-07T21:22:51.288Z,17.42
2022-08-07T21:25:42.580Z,17.38
2022-08-07T21:28:48.197Z,17.27
2022-08-07T21:31:49.507Z,17.23
2022-08-07T21:34:32.305Z,17.14
2022-08-07T21:37:13.392Z,17.17
2022-08-07T21:40:07.445Z,17.10
2022-08-07T21:42:54.822Z,17.01
2022-08-07T21:46:08.153Z,16.96
2022-08-07T21:48:59.774Z,16.92
2022-08-07T21:51:32.321Z,16.86
2022-08-07T21:54:18.671Z,16.78
2022-08-07T21:57:31.496Z,16.84
2022-08-07T22:00:12.248Z,16.81
2022-08-07T22:03:31.644Z,16.75
2022-08-07T22:06:07.685Z,16.63
2022-08-07T22:09:06.947Z,16.63
2022-08-07T22:11:53.371Z,16.60
2022-08-07T22:14:38.848Z,16.56
2022-08-07T22:17:36.107Z,16.56
2022-08-07T22:20:23.995Z,16.55
2022-08-07T22:23:03.380Z,16.51
2022-08-07T22:25:45.147Z,16.46
2022-08-07T22:28:31.941Z,16.40
2022-08-07T22:31:59.346Z,16.35
2022-08-07T22:34:58.305Z,16.34
2022-08-07T22:38:04.731Z,16.29
2022-08-07T22:40:51.689Z,16.30
2022-08-07T22:43:33.934Z,16.24
2022-08-07T22:47:02.697Z,16.23
2022-08-07T22:49:37.912Z,16.18
2022-08-07T22:52:37.101Z,16.19
2022-08-07T22:55:38.492Z,16.13
2022-08-07T22:58:49.634Z,16.07
2022-08-07T23:01:42.168Z,16.05
2022-08-07T23:04:58.232Z,16.01
2022-08-07T23:08:46.175Z,15.95
2022-08-07T23:11:22.408Z,15.87
2022-08-07T23:14:16.455Z,15.84
2022-08-07T23:17:12.725Z,15.87
2022-08-07T23:20:52.827Z,15.78
2022-08-07T23:24:06.005Z,15.81
2022-08-07T23:27:33.501Z,15.77
2022-08-07T23:30:38.397Z,15.63
2022-08-07T23:34:23.416Z,15.60
2022-08-07T23:36:22.948Z,15.63
2022-08-07T23:39:04.836Z,15.63
2022-08-07T23:42:21.963Z,15.60
2022-08-07T23:45:33.121Z,15.58
2022-08-07T23:48:24.980Z,15.57
2022-08-07T23:53:16.846Z,15.50
2022-08-07T23:54:36.052Z,15.50
2022-08-07T23:57:22.217Z,15.43
